Time;durP1;ratioP1;P1;durP2;ratioP2;P2;SDS_P1;SDS_P2;PMS_P1;PMS_P2;Temp;Humidity;BMP_temperature;BMP_pressure;BME280_temperature;BME280_humidity;BME280_pressure;Samples;Min_cycle;Max_cycle;Signal;HPM_P1;HPM_P2
2022/01/24 00:00:52;;;;;;;;;;;;;;;;;;5066698;28;19915;-89
2022/01/24 00:03:18;;;;;;;;;;;;;;;;;;5064759;28;20352;-89
2022/01/24 00:05:44;;;;;;;;;;;;;;;;;;5064417;28;19912;-85
2022/01/24 00:08:10;;;;;;;;;;;;;;;;;;5061424;28;20007;-87
2022/01/24 00:10:38;;;;;;;;;;;;;;;;;;5064232;28;20010;-86
2022/01/24 00:18:27;;;;;;;;;;;;;;;;;;5064719;28;19978;-85
2022/01/24 00:26:46;;;;;;;;;;;;;;;;;;5062948;28;19923;-88
2022/01/24 00:29:12;;;;;;;;;;;;;;;;;;5063163;28;19919;-88
2022/01/24 00:31:38;;;;;;;;;;;;;;;;;;5064660;28;19913;-87
2022/01/24 00:34:04;;;;;;;;;;;;;;;;;;5065214;28;19951;-86
2022/01/24 00:36:30;;;;;;;;;;;;;;;;;;5065287;28;20001;-87
2022/01/24 00:38:56;;;;;;;;;;;;;;;;;;5065125;28;19912;-86
2022/01/24 00:41:23;;;;;;;;;;;;;;;;;;5062142;28;19913;-88
2022/01/24 00:46:46;;;;;;;;;;;;;;;;;;5001659;28;19915;-88
2022/01/24 00:54:44;;;;;;;;;;;;;;;;;;4991923;28;20572;-87
2022/01/24 00:57:10;;;;;;;;;;;;;;;;;;4995787;28;20024;-87
2022/01/24 00:59:36;;;;;;;;;;;;;;;;;;4996931;28;20005;-87
2022/01/24 01:02:01;;;;;;;;;;;;;;;;;;4972195;28;20496;-87
2022/01/24 01:04:37;;;;;;;;;;;;;;;;;;4999321;28;20005;-85
2022/01/24 01:07:06;;;;;;;;;;;;;;;;;;4988939;28;19906;-85
2022/01/24 01:20:39;;;;;;;;;;;;;;;;;;4990958;28;20908;-84
2022/01/24 01:23:05;;;;;;;;;;;;;;;;;;5002032;28;19932;-84
2022/01/24 01:25:31;;;;;;;;;;;;;;;;;;5047915;28;19912;-84
2022/01/24 01:27:57;;;;;;;;;;;;;;;;;;5058852;28;19924;-84
2022/01/24 01:30:34;;;;;;;;;;;;;;;;;;5058864;28;19913;-84
2022/01/24 01:33:13;;;;;;;;;;;;;;;;;;5061568;28;19920;-86
2022/01/24 01:35:59;;;;;;;;;;;;;;;;;;5063245;28;19908;-86
2022/01/24 01:38:42;;;;;;;;;;;;;;;;;;5061302;28;19913;-86
2022/01/24 01:52:35;;;;;;;;;;;;;;;;;;5060443;28;19955;-84
2022/01/24 01:57:33;;;;;;;;;;;;;;;;;;5063757;28;20643;-84
2022/01/24 01:59:59;;;;;;;;;;;;;;;;;;5062685;28;19993;-84
2022/01/24 02:02:25;;;;;;;;;;;;;;;;;;5059861;28;19920;-86
2022/01/24 02:04:50;;;;;;;;;;;;;;;;;;5063585;28;19912;-85
2022/01/24 02:07:17;;;;;;;;;;;;;;;;;;5060380;28;19912;-82
2022/01/24 02:09:45;;;;;;;;;;;;;;;;;;5063645;28;19918;-84
2022/01/24 02:12:11;;;;;;;;;;;;;;;;;;5062875;28;19920;-83
2022/01/24 02:14:42;;;;;;;;;;;;;;;;;;5062878;28;19912;-87
2022/01/24 02:17:14;;;;;;;;;;;;;;;;;;5063196;28;19916;-88
2022/01/24 02:24:57;;;;;;;;;;;;;;;;;;5063072;28;19920;-87
2022/01/24 02:27:24;;;;;;;;;;;;;;;;;;5061302;28;19927;-90
2022/01/24 02:32:16;;;;;;;;;;;;;;;;;;5057461;28;19912;-91
2022/01/24 02:34:45;;;;;;;;;;;;;;;;;;5051166;28;19913;-91
2022/01/24 02:37:11;;;;;;;;;;;;;;;;;;5053542;28;20492;-89
2022/01/24 02:39:52;;;;;;;;;;;;;;;;;;5048135;28;20007;-89
2022/01/24 02:53:16;;;;;;;;;;;;;;;;;;5052614;28;19912;-90
2022/01/24 02:55:42;;;;;;;;;;;;;;;;;;5049823;28;19924;-91
2022/01/24 02:58:08;;;;;;;;;;;;;;;;;;5059564;28;19916;-84
2022/01/24 03:00:34;;;;;;;;;;;;;;;;;;5048298;28;19915;-86
2022/01/24 03:03:00;;;;;;;;;;;;;;;;;;5045861;28;19954;-85
2022/01/24 03:05:26;;;;;;;;;;;;;;;;;;5045972;28;19964;-86
2022/01/24 03:07:52;;;;;;;;;;;;;;;;;;5065757;28;19917;-86
2022/01/24 03:10:27;;;;;;;;;;;;;;;;;;5045067;28;20067;-86
2022/01/24 03:13:35;;;;;;;;;;;;;;;;;;5051417;28;19996;-86
2022/01/24 03:15:42;;;;;;;;;;;;;;;;;;5053182;28;19913;-87
2022/01/24 03:18:08;;;;;;;;;;;;;;;;;;5062267;28;19912;-87
2022/01/24 03:20:34;;;;;;;;;;;;;;;;;;5056983;28;19916;-86
2022/01/24 03:23:00;;;;;;;;;;;;;;;;;;5047177;28;19924;-86
2022/01/24 03:25:25;;;;;;;;;;;;;;;;;;5056199;28;19912;-87
2022/01/24 03:27:51;;;;;;;;;;;;;;;;;;5052735;28;20390;-89
2022/01/24 03:30:17;;;;;;;;;;;;;;;;;;5052375;28;19913;-89
2022/01/24 03:32:43;;;;;;;;;;;;;;;;;;5056189;28;19935;-89
2022/01/24 03:35:09;;;;;;;;;;;;;;;;;;5062731;28;20332;-90
2022/01/24 03:37:35;;;;;;;;;;;;;;;;;;5050543;28;19947;-87
2022/01/24 03:40:01;;;;;;;;;;;;;;;;;;5054165;28;19960;-88
2022/01/24 03:42:27;;;;;;;;;;;;;;;;;;5056790;28;20011;-90
2022/01/24 03:44:57;;;;;;;;;;;;;;;;;;5062564;28;19951;-89
2022/01/24 03:48:06;;;;;;;;;;;;;;;;;;5063189;28;19912;-88
2022/01/24 03:50:17;;;;;;;;;;;;;;;;;;5059880;28;20023;-89
2022/01/24 03:52:43;;;;;;;;;;;;;;;;;;5065122;28;19947;-89
2022/01/24 03:55:09;;;;;;;;;;;;;;;;;;5063269;28;20492;-88
2022/01/24 03:57:35;;;;;;;;;;;;;;;;;;5056351;28;19923;-88
2022/01/24 04:00:01;;;;;;;;;;;;;;;;;;5065240;28;19919;-88
2022/01/24 04:02:27;;;;;;;;;;;;;;;;;;5056916;28;19917;-87
2022/01/24 04:04:53;;;;;;;;;;;;;;;;;;5052592;28;19946;-88
2022/01/24 04:07:18;;;;;;;;;;;;;;;;;;5062513;28;19913;-85
2022/01/24 04:09:44;;;;;;;;;;;;;;;;;;5065991;28;20027;-85
2022/01/24 04:12:10;;;;;;;;;;;;;;;;;;5064732;28;19922;-84
2022/01/24 04:14:41;;;;;;;;;;;;;;;;;;5064879;28;19986;-84
2022/01/24 04:22:08;;;;;;;;;;;;;;;;;;5062489;28;19912;-83
2022/01/24 04:24:34;;;;;;;;;;;;;;;;;;5079701;28;19913;-82
2022/01/24 04:27:00;;;;;;;;;;;;;;;;;;5065239;28;19924;-83
2022/01/24 04:29:26;;;;;;;;;;;;;;;;;;5064112;28;20061;-82
2022/01/24 04:31:52;;;;;;;;;;;;;;;;;;5064449;28;19928;-82
2022/01/24 04:34:17;;;;;;;;;;;;;;;;;;5061306;28;19954;-84
2022/01/24 04:36:43;;;;;;;;;;;;;;;;;;5047960;28;20374;-86
2022/01/24 04:39:09;;;;;;;;;;;;;;;;;;5062360;28;19912;-86
2022/01/24 04:41:39;;;;;;;;;;;;;;;;;;5054497;28;20003;-86
2022/01/24 04:44:19;;;;;;;;;;;;;;;;;;5053429;28;19931;-85
2022/01/24 04:54:42;;;;;;;;;;;;;;;;;;5062701;28;19954;-87
2022/01/24 04:57:09;;;;;;;;;;;;;;;;;;5062525;28;19935;-86
2022/01/24 04:59:34;;;;;;;;;;;;;;;;;;5059007;28;19913;-91
2022/01/24 05:02:01;;;;;;;;;;;;;;;;;;5066423;28;19916;-90
2022/01/24 05:04:27;;;;;;;;;;;;;;;;;;5058321;28;19916;-90
2022/01/24 05:06:53;;;;;;;;;;;;;;;;;;5065883;28;20789;-90
2022/01/24 05:09:20;;;;;;;;;;;;;;;;;;5064907;28;20221;-87
2022/01/24 05:25:11;;;;;;;;;;;;;;;;;;5062086;28;19916;-87
2022/01/24 05:27:37;;;;;;;;;;;;;;;;;;5051791;28;19921;-88
2022/01/24 05:30:03;;;;;;;;;;;;;;;;;;5057667;28;20370;-86
2022/01/24 05:32:29;;;;;;;;;;;;;;;;;;5064055;28;19958;-88
2022/01/24 05:34:54;;;;;;;;;;;;;;;;;;5063870;28;19958;-86
2022/01/24 05:37:20;;;;;;;;;;;;;;;;;;5051977;28;19923;-88
2022/01/24 05:39:46;;;;;;;;;;;;;;;;;;5065606;28;19912;-89
2022/01/24 05:42:12;;;;;;;;;;;;;;;;;;5064709;28;20403;-87
2022/01/24 05:44:38;;;;;;;;;;;;;;;;;;5059669;28;19916;-88
2022/01/24 05:47:04;;;;;;;;;;;;;;;;;;5052725;28;19912;-86
2022/01/24 05:49:30;;;;;;;;;;;;;;;;;;5061302;28;19912;-85
2022/01/24 05:51:56;;;;;;;;;;;;;;;;;;5066400;28;19908;-90
2022/01/24 05:54:22;;;;;;;;;;;;;;;;;;5065266;28;19968;-88
2022/01/24 05:56:48;;;;;;;;;;;;;;;;;;5059033;28;20392;-88
2022/01/24 05:59:14;;;;;;;;;;;;;;;;;;5065426;28;20369;-89
2022/01/24 06:01:39;;;;;;;;;;;;;;;;;;5073322;28;19927;-91
2022/01/24 06:04:05;;;;;;;;;;;;;;;;;;5061503;28;19927;-89
2022/01/24 06:06:31;;;;;;;;;;;;;;;;;;5064885;28;20486;-88
2022/01/24 06:08:57;;;;;;;;;;;;;;;;;;5063578;28;19912;-86
2022/01/24 06:11:24;;;;;;;;;;;;;;;;;;5063494;28;19983;-87
2022/01/24 06:13:51;;;;;;;;;;;;;;;;;;5052951;28;19994;-88
2022/01/24 06:16:17;;;;;;;;;;;;;;;;;;5058380;28;19912;-83
2022/01/24 06:18:43;;;;;;;;;;;;;;;;;;5053367;28;19966;-80
2022/01/24 06:21:09;;;;;;;;;;;;;;;;;;5050210;28;19912;-81
2022/01/24 06:23:35;;;;;;;;;;;;;;;;;;5053356;28;19920;-80
2022/01/24 06:26:01;;;;;;;;;;;;;;;;;;5051003;28;19958;-82
2022/01/24 06:28:27;;;;;;;;;;;;;;;;;;5060295;28;19913;-85
2022/01/24 06:30:53;;;;;;;;;;;;;;;;;;5058465;28;19916;-83
2022/01/24 06:33:19;;;;;;;;;;;;;;;;;;5059251;28;20459;-82
2022/01/24 06:35:45;;;;;;;;;;;;;;;;;;5051419;28;19959;-81
2022/01/24 06:38:11;;;;;;;;;;;;;;;;;;5049959;28;19912;-81
2022/01/24 06:40:37;;;;;;;;;;;;;;;;;;5044900;28;20001;-79
2022/01/24 06:43:03;;;;;;;;;;;;;;;;;;5052614;28;19920;-83
2022/01/24 06:45:29;;;;;;;;;;;;;;;;;;5043383;28;19912;-84
2022/01/24 06:47:54;;;;;;;;;;;;;;;;;;5052618;28;20007;-85
2022/01/24 06:50:20;;;;;;;;;;;;;;;;;;5045126;28;19974;-86
2022/01/24 06:52:47;;;;;;;;;;;;;;;;;;5047529;28;19963;-86
2022/01/24 06:55:13;;;;;;;;;;;;;;;;;;5065765;28;19916;-86
2022/01/24 06:57:39;;;;;;;;;;;;;;;;;;5062824;28;19913;-85
2022/01/24 07:00:05;;;;;;;;;;;;;;;;;;5062737;28;20636;-86
2022/01/24 07:02:31;;;;;;;;;;;;;;;;;;5063110;28;19978;-87
2022/01/24 07:04:57;;;;;;;;;;;;;;;;;;5063266;28;19947;-85
2022/01/24 07:07:23;;;;;;;;;;;;;;;;;;5049719;28;19919;-86
2022/01/24 07:09:49;;;;;;;;;;;;;;;;;;5064530;28;19916;-87
2022/01/24 07:12:15;;;;;;;;;;;;;;;;;;5065932;28;19924;-86
2022/01/24 07:14:42;;;;;;;;;;;;;;;;;;5066471;28;19918;-84
2022/01/24 07:19:40;;;;;;;;;;;;;;;;;;5066816;28;19955;-86
2022/01/24 07:22:06;;;;;;;;;;;;;;;;;;5065665;28;19965;-86
2022/01/24 07:24:32;;;;;;;;;;;;;;;;;;5066886;28;19912;-86
2022/01/24 07:26:59;;;;;;;;;;;;;;;;;;5065955;28;19974;-85
2022/01/24 07:29:25;;;;;;;;;;;;;;;;;;5065564;28;19982;-85
2022/01/24 07:31:50;;;;;;;;;;;;;;;;;;5066192;28;20418;-86
2022/01/24 07:34:16;;;;;;;;;;;;;;;;;;5066178;28;19916;-86
2022/01/24 07:36:42;;;;;;;;;;;;;;;;;;5064177;28;19920;-86
2022/01/24 07:39:08;;;;;;;;;;;;;;;;;;5064527;28;19912;-84
2022/01/24 07:41:42;;;;;;;;;;;;;;;;;;5064881;28;20027;-86
2022/01/24 07:44:08;;;;;;;;;;;;;;;;;;5065938;28;19924;-87
2022/01/24 07:46:34;;;;;;;;;;;;;;;;;;5065987;28;19981;-86
2022/01/24 07:49:00;;;;;;;;;;;;;;;;;;5067082;28;20075;-87
2022/01/24 07:51:25;;;;;;;;;;;;;;;;;;5065777;28;19912;-87
2022/01/24 07:53:51;;;;;;;;;;;;;;;;;;5065824;28;20455;-87
2022/01/24 07:56:17;;;;;;;;;;;;;;;;;;5064022;28;19912;-86
2022/01/24 07:58:44;;;;;;;;;;;;;;;;;;5059268;28;19913;-87
2022/01/24 08:01:10;;;;;;;;;;;;;;;;;;5065144;28;19912;-87
2022/01/24 08:03:36;;;;;;;;;;;;;;;;;;5052848;28;19928;-86
2022/01/24 08:06:02;;;;;;;;;;;;;;;;;;5061895;28;19916;-87
2022/01/24 08:08:28;;;;;;;;;;;;;;;;;;5065427;28;19912;-86
2022/01/24 08:10:54;;;;;;;;;;;;;;;;;;5065685;28;19963;-87
2022/01/24 08:13:20;;;;;;;;;;;;;;;;;;5064642;28;20099;-87
2022/01/24 08:15:45;;;;;;;;;;;;;;;;;;5065865;28;19912;-86
2022/01/24 08:18:12;;;;;;;;;;;;;;;;;;5064637;28;20385;-87
2022/01/24 08:20:39;;;;;;;;;;;;;;;;;;5065261;28;20308;-87
2022/01/24 08:23:05;;;;;;;;;;;;;;;;;;5064629;28;19924;-87
2022/01/24 08:25:31;;;;;;;;;;;;;;;;;;5049080;28;19919;-87
2022/01/24 08:27:57;;;;;;;;;;;;;;;;;;5065537;28;20536;-87
2022/01/24 08:30:23;;;;;;;;;;;;;;;;;;5053981;28;20289;-85
2022/01/24 08:32:49;;;;;;;;;;;;;;;;;;5052078;28;20289;-85
2022/01/24 08:35:14;;;;;;;;;;;;;;;;;;5054887;28;19919;-87
2022/01/24 08:37:40;;;;;;;;;;;;;;;;;;5065064;28;19916;-84
2022/01/24 08:40:06;;;;;;;;;;;;;;;;;;5065237;28;20686;-85
2022/01/24 08:42:45;;;;;;;;;;;;;;;;;;5064976;28;20616;-85
2022/01/24 08:47:56;;;;;;;;;;;;;;;;;;5064978;28;19919;-86
2022/01/24 08:50:26;;;;;;;;;;;;;;;;;;5064935;28;20010;-85
2022/01/24 08:52:52;;;;;;;;;;;;;;;;;;5059822;28;19946;-85
2022/01/24 08:55:18;;;;;;;;;;;;;;;;;;5065396;28;19912;-85
2022/01/24 08:57:43;;;;;;;;;;;;;;;;;;5055022;28;19908;-86
2022/01/24 09:00:09;;;;;;;;;;;;;;;;;;5064563;28;20452;-85
2022/01/24 09:02:35;;;;;;;;;;;;;;;;;;5059729;28;19917;-86
2022/01/24 09:05:01;;;;;;;;;;;;;;;;;;5052618;28;19920;-86
2022/01/24 09:07:30;;;;;;;;;;;;;;;;;;5064270;28;19912;-86
2022/01/24 09:09:55;;;;;;;;;;;;;;;;;;5065013;28;19912;-84
2022/01/24 09:12:21;;;;;;;;;;;;;;;;;;5064936;28;19913;-85
2022/01/24 09:14:47;;;;;;;;;;;;;;;;;;5058910;28;19912;-86
2022/01/24 09:17:13;;;;;;;;;;;;;;;;;;5049393;28;20376;-85
2022/01/24 09:19:39;;;;;;;;;;;;;;;;;;5063436;28;19916;-86
2022/01/24 09:22:05;;;;;;;;;;;;;;;;;;5063751;28;19920;-85
2022/01/24 09:24:31;;;;;;;;;;;;;;;;;;5052232;28;19990;-85
2022/01/24 09:26:57;;;;;;;;;;;;;;;;;;5059548;28;19920;-85
2022/01/24 09:29:23;;;;;;;;;;;;;;;;;;5062984;28;19916;-85
2022/01/24 09:31:49;;;;;;;;;;;;;;;;;;5063326;28;19917;-86
2022/01/24 09:34:15;;;;;;;;;;;;;;;;;;5048113;28;20799;-86
2022/01/24 09:36:42;;;;;;;;;;;;;;;;;;5050799;28;20039;-86
2022/01/24 09:39:08;;;;;;;;;;;;;;;;;;5060936;28;19990;-86
2022/01/24 09:41:34;;;;;;;;;;;;;;;;;;5062652;28;20512;-86
2022/01/24 09:44:00;;;;;;;;;;;;;;;;;;5063533;28;20031;-86
2022/01/24 09:46:26;;;;;;;;;;;;;;;;;;5063467;28;20048;-86
2022/01/24 09:48:52;;;;;;;;;;;;;;;;;;5064116;28;20436;-86
2022/01/24 09:51:17;;;;;;;;;;;;;;;;;;5062936;28;20031;-85
2022/01/24 09:53:43;;;;;;;;;;;;;;;;;;5063079;28;19912;-85
2022/01/24 09:56:09;;;;;;;;;;;;;;;;;;5058656;28;19912;-86
2022/01/24 09:58:35;;;;;;;;;;;;;;;;;;5059591;28;19912;-85
2022/01/24 10:01:01;;;;;;;;;;;;;;;;;;5063977;28;19908;-86
2022/01/24 10:03:27;;;;;;;;;;;;;;;;;;5050344;28;19920;-85
2022/01/24 10:05:53;;;;;;;;;;;;;;;;;;5059958;28;20289;-85
2022/01/24 10:08:19;;;;;;;;;;;;;;;;;;5059742;28;19954;-86
2022/01/24 10:10:47;;;;;;;;;;;;;;;;;;5059410;28;19913;-86
2022/01/24 10:18:42;;;;;;;;;;;;;;;;;;5063533;28;19978;-85
2022/01/24 10:21:08;;;;;;;;;;;;;;;;;;5061670;28;20385;-85
2022/01/24 10:23:34;;;;;;;;;;;;;;;;;;5059283;28;19920;-87
2022/01/24 10:26:02;;;;;;;;;;;;;;;;;;5059933;28;20413;-86
2022/01/24 10:28:28;;;;;;;;;;;;;;;;;;5062801;28;19971;-88
2022/01/24 10:30:53;;;;;;;;;;;;;;;;;;5063784;28;19999;-85
2022/01/24 10:33:19;;;;;;;;;;;;;;;;;;5058489;28;19959;-86
2022/01/24 10:35:47;;;;;;;;;;;;;;;;;;5059758;28;20499;-85
2022/01/24 10:38:15;;;;;;;;;;;;;;;;;;5059315;28;19912;-86
2022/01/24 10:40:54;;;;;;;;;;;;;;;;;;5062589;28;19928;-85
2022/01/24 10:43:19;;;;;;;;;;;;;;;;;;5065417;28;19916;-85
2022/01/24 10:45:45;;;;;;;;;;;;;;;;;;5065797;28;19915;-85
2022/01/24 10:48:11;;;;;;;;;;;;;;;;;;5063298;28;19923;-85
2022/01/24 10:50:37;;;;;;;;;;;;;;;;;;5065092;28;19961;-86
2022/01/24 10:53:03;;;;;;;;;;;;;;;;;;5063834;28;20297;-86
2022/01/24 10:55:30;;;;;;;;;;;;;;;;;;5063909;28;19912;-86
2022/01/24 10:57:56;;;;;;;;;;;;;;;;;;5067344;28;19959;-86
2022/01/24 11:00:21;;;;;;;;;;;;;;;;;;5063556;28;19916;-86
2022/01/24 11:02:47;;;;;;;;;;;;;;;;;;5063632;28;20478;-86
2022/01/24 11:05:13;;;;;;;;;;;;;;;;;;5064699;28;19994;-85
2022/01/24 11:07:39;;;;;;;;;;;;;;;;;;5063540;28;19916;-86
2022/01/24 11:10:05;;;;;;;;;;;;;;;;;;5066862;28;20529;-85
2022/01/24 11:12:31;;;;;;;;;;;;;;;;;;5066011;28;19934;-85
2022/01/24 11:14:57;;;;;;;;;;;;;;;;;;5064571;28;19912;-86
2022/01/24 11:17:29;;;;;;;;;;;;;;;;;;5062941;28;19920;-86
2022/01/24 11:19:56;;;;;;;;;;;;;;;;;;5063209;28;20385;-86
2022/01/24 11:22:26;;;;;;;;;;;;;;;;;;5063427;28;19916;-86
2022/01/24 11:24:56;;;;;;;;;;;;;;;;;;5066482;28;19912;-85
2022/01/24 11:27:22;;;;;;;;;;;;;;;;;;5061079;28;19920;-86
2022/01/24 11:29:48;;;;;;;;;;;;;;;;;;5062851;28;19971;-86
2022/01/24 11:32:15;;;;;;;;;;;;;;;;;;5063012;28;19908;-85
2022/01/24 11:34:42;;;;;;;;;;;;;;;;;;5062937;28;19924;-86
2022/01/24 11:37:08;;;;;;;;;;;;;;;;;;5066178;28;19908;-86
2022/01/24 11:39:34;;;;;;;;;;;;;;;;;;5063819;28;20349;-86
2022/01/24 11:42:02;;;;;;;;;;;;;;;;;;5063338;28;19912;-86
2022/01/24 11:44:27;;;;;;;;;;;;;;;;;;5062489;28;19920;-86
2022/01/24 11:46:55;;;;;;;;;;;;;;;;;;5062621;28;19923;-85
2022/01/24 11:49:21;;;;;;;;;;;;;;;;;;5063848;28;19915;-85
2022/01/24 11:51:47;;;;;;;;;;;;;;;;;;5063581;28;20297;-85
2022/01/24 11:54:13;;;;;;;;;;;;;;;;;;5064406;28;19928;-85
2022/01/24 11:56:39;;;;;;;;;;;;;;;;;;5061988;28;19912;-85
2022/01/24 11:59:05;;;;;;;;;;;;;;;;;;5063578;28;19917;-86
2022/01/24 12:01:31;;;;;;;;;;;;;;;;;;5062891;28;20791;-86
2022/01/24 12:03:57;;;;;;;;;;;;;;;;;;5065889;28;19916;-85
2022/01/24 12:06:22;;;;;;;;;;;;;;;;;;5061099;28;19912;-86
2022/01/24 12:08:51;;;;;;;;;;;;;;;;;;5061540;28;19908;-86
2022/01/24 12:11:19;;;;;;;;;;;;;;;;;;5060042;28;19919;-86
2022/01/24 12:13:46;;;;;;;;;;;;;;;;;;5063740;28;20364;-86
2022/01/24 12:16:12;;;;;;;;;;;;;;;;;;5064071;28;20332;-86
2022/01/24 12:18:38;;;;;;;;;;;;;;;;;;5064852;28;19908;-86
2022/01/24 12:21:04;;;;;;;;;;;;;;;;;;5061612;28;20672;-86
2022/01/24 12:23:30;;;;;;;;;;;;;;;;;;5060943;28;19921;-86
2022/01/24 12:26:05;;;;;;;;;;;;;;;;;;5061639;28;19912;-86
2022/01/24 12:28:31;;;;;;;;;;;;;;;;;;5062236;28;19916;-86
2022/01/24 12:30:56;;;;;;;;;;;;;;;;;;5065201;28;19908;-86
2022/01/24 12:33:22;;;;;;;;;;;;;;;;;;5060095;28;20468;-86
2022/01/24 12:35:48;;;;;;;;;;;;;;;;;;5061451;28;19966;-86
2022/01/24 12:38:14;;;;;;;;;;;;;;;;;;5058467;28;20193;-86
2022/01/24 12:40:40;;;;;;;;;;;;;;;;;;5061356;28;19916;-87
2022/01/24 12:43:06;;;;;;;;;;;;;;;;;;5062898;28;20002;-86
2022/01/24 12:48:16;;;;;;;;;;;;;;;;;;5052928;28;19987;-86
2022/01/24 12:50:42;;;;;;;;;;;;;;;;;;5054794;28;19915;-86
2022/01/24 12:53:10;;;;;;;;;;;;;;;;;;5061953;28;19912;-86
2022/01/24 12:55:36;;;;;;;;;;;;;;;;;;5062663;28;20007;-85
2022/01/24 12:58:02;;;;;;;;;;;;;;;;;;5065223;28;20448;-86
2022/01/24 13:00:29;;;;;;;;;;;;;;;;;;5060736;28;19912;-85
2022/01/24 13:02:55;;;;;;;;;;;;;;;;;;5058523;28;19963;-86
2022/01/24 13:05:21;;;;;;;;;;;;;;;;;;5062336;28;19955;-85
2022/01/24 13:07:47;;;;;;;;;;;;;;;;;;5061749;28;19913;-85
2022/01/24 13:10:13;;;;;;;;;;;;;;;;;;5063623;28;19923;-86
2022/01/24 13:12:38;;;;;;;;;;;;;;;;;;5062096;28;19905;-86
2022/01/24 13:15:07;;;;;;;;;;;;;;;;;;5060812;28;20020;-85
2022/01/24 13:20:54;;;;;;;;;;;;;;;;;;5060825;28;19919;-86
2022/01/24 13:23:12;;;;;;;;;;;;;;;;;;5060260;28;19928;-86
2022/01/24 13:25:38;;;;;;;;;;;;;;;;;;5061233;28;19947;-86
2022/01/24 13:28:04;;;;;;;;;;;;;;;;;;5040374;28;19967;-86
2022/01/24 13:30:30;;;;;;;;;;;;;;;;;;5039918;28;19912;-86
2022/01/24 13:32:57;;;;;;;;;;;;;;;;;;5041362;28;19912;-86
2022/01/24 13:35:25;;;;;;;;;;;;;;;;;;5040162;28;19924;-86
2022/01/24 13:37:51;;;;;;;;;;;;;;;;;;5041903;28;19916;-86
2022/01/24 13:40:17;;;;;;;;;;;;;;;;;;5042224;28;19916;-86
2022/01/24 13:42:43;;;;;;;;;;;;;;;;;;5043459;28;19928;-86
2022/01/24 13:45:09;;;;;;;;;;;;;;;;;;5041803;28;19909;-86
2022/01/24 13:47:35;;;;;;;;;;;;;;;;;;5039934;28;20046;-85
2022/01/24 13:50:00;;;;;;;;;;;;;;;;;;5039376;28;19912;-86
2022/01/24 13:52:26;;;;;;;;;;;;;;;;;;5040950;28;20686;-86
2022/01/24 13:54:52;;;;;;;;;;;;;;;;;;5042797;28;19912;-86
2022/01/24 13:57:18;;;;;;;;;;;;;;;;;;5041742;28;19963;-86
2022/01/24 13:59:44;;;;;;;;;;;;;;;;;;5044914;28;19939;-87
2022/01/24 14:02:10;;;;;;;;;;;;;;;;;;5039679;28;19919;-87
2022/01/24 14:04:36;;;;;;;;;;;;;;;;;;5039642;28;19917;-86
2022/01/24 14:07:02;;;;;;;;;;;;;;;;;;5044164;28;19999;-86
2022/01/24 14:09:28;;;;;;;;;;;;;;;;;;5039752;28;20032;-87
2022/01/24 14:11:54;;;;;;;;;;;;;;;;;;5035602;28;19987;-86
2022/01/24 14:14:21;;;;;;;;;;;;;;;;;;5038200;28;20304;-87
2022/01/24 14:19:48;;;;;;;;;;;;;;;;;;5016826;28;19917;-86
2022/01/24 14:22:15;;;;;;;;;;;;;;;;;;5018365;28;19913;-86
2022/01/24 14:24:41;;;;;;;;;;;;;;;;;;5018184;28;19917;-86
2022/01/24 14:27:07;;;;;;;;;;;;;;;;;;5017554;28;19921;-86
2022/01/24 14:29:37;;;;;;;;;;;;;;;;;;5016220;28;20496;-86
2022/01/24 14:32:10;;;;;;;;;;;;;;;;;;5001896;28;19940;-86
2022/01/24 14:34:35;;;;;;;;;;;;;;;;;;5018065;28;19952;-86
2022/01/24 14:37:05;;;;;;;;;;;;;;;;;;5020521;28;19944;-87
2022/01/24 14:39:31;;;;;;;;;;;;;;;;;;5017593;28;20011;-85
2022/01/24 14:41:58;;;;;;;;;;;;;;;;;;5017793;28;19919;-86
2022/01/24 14:47:08;;;;;;;;;;;;;;;;;;5016255;28;19920;-86
2022/01/24 14:49:34;;;;;;;;;;;;;;;;;;5004587;28;19909;-86
2022/01/24 14:52:01;;;;;;;;;;;;;;;;;;5020282;28;19913;-87
2022/01/24 14:54:27;;;;;;;;;;;;;;;;;;5006100;28;20745;-86
2022/01/24 14:56:53;;;;;;;;;;;;;;;;;;5014375;28;19956;-86
2022/01/24 14:59:19;;;;;;;;;;;;;;;;;;5018682;28;20020;-86
2022/01/24 15:01:45;;;;;;;;;;;;;;;;;;5018930;28;19910;-86
2022/01/24 15:04:11;;;;;;;;;;;;;;;;;;5019776;28;20309;-86
2022/01/24 15:06:37;;;;;;;;;;;;;;;;;;5022467;28;19913;-86
2022/01/24 15:09:03;;;;;;;;;;;;;;;;;;5020219;28;19909;-86
2022/01/24 15:11:31;;;;;;;;;;;;;;;;;;5018819;28;19913;-85
2022/01/24 15:14:02;;;;;;;;;;;;;;;;;;5021802;28;19913;-86
2022/01/24 15:16:48;;;;;;;;;;;;;;;;;;5022145;28;19975;-85
2022/01/24 15:27:10;;;;;;;;;;;;;;;;;;5047845;28;20022;-85
2022/01/24 15:29:36;;;;;;;;;;;;;;;;;;5065142;28;19912;-85
2022/01/24 15:32:04;;;;;;;;;;;;;;;;;;5062316;28;19913;-86
2022/01/24 15:34:30;;;;;;;;;;;;;;;;;;5063791;28;19912;-85
2022/01/24 15:36:56;;;;;;;;;;;;;;;;;;5062508;28;19928;-85
2022/01/24 15:39:23;;;;;;;;;;;;;;;;;;5065491;28;20289;-85
2022/01/24 15:41:59;;;;;;;;;;;;;;;;;;5065832;28;20293;-86
2022/01/24 15:46:59;;;;;;;;;;;;;;;;;;5066282;28;19919;-85
2022/01/24 15:49:25;;;;;;;;;;;;;;;;;;5065661;28;19908;-85
2022/01/24 15:51:51;;;;;;;;;;;;;;;;;;5062268;28;20049;-85
2022/01/24 15:54:20;;;;;;;;;;;;;;;;;;5055838;28;20347;-85
2022/01/24 15:59:12;;;;;;;;;;;;;;;;;;5066073;28;19919;-86
2022/01/24 16:01:39;;;;;;;;;;;;;;;;;;5064647;28;19928;-85
2022/01/24 16:04:05;;;;;;;;;;;;;;;;;;5049961;28;20382;-85
2022/01/24 16:06:31;;;;;;;;;;;;;;;;;;5054094;28;19917;-85
2022/01/24 16:08:57;;;;;;;;;;;;;;;;;;5054124;28;19935;-85
2022/01/24 16:11:26;;;;;;;;;;;;;;;;;;5063331;28;19968;-85
2022/01/24 16:13:52;;;;;;;;;;;;;;;;;;5065683;28;19912;-85
2022/01/24 16:16:18;;;;;;;;;;;;;;;;;;5065555;28;19908;-86
2022/01/24 16:18:44;;;;;;;;;;;;;;;;;;5065342;28;19909;-86
2022/01/24 16:26:51;;;;;;;;;;;;;;;;;;4982350;28;19925;-81
2022/01/24 16:29:17;;;;;;;;;;;;;;;;;;4979792;28;19913;-81
2022/01/24 16:31:43;;;;;;;;;;;;;;;;;;4982260;28;20391;-81
2022/01/24 16:34:09;;;;;;;;;;;;;;;;;;4983190;28;20458;-81
2022/01/24 16:36:35;;;;;;;;;;;;;;;;;;4983060;28;19936;-80
2022/01/24 16:39:00;;;;;;;;;;;;;;;;;;4981042;28;20393;-80
2022/01/24 16:41:36;;;;;;;;;;;;;;;;;;4979480;28;20307;-80
2022/01/24 16:47:03;;;;;;;;;;;;;;;;;;4981773;28;19921;-82
2022/01/24 16:49:30;;;;;;;;;;;;;;;;;;4980479;28;19921;-82
2022/01/24 16:51:56;;;;;;;;;;;;;;;;;;4980294;28;19973;-80
2022/01/24 16:54:25;;;;;;;;;;;;;;;;;;4980729;28;20396;-81
2022/01/24 16:56:51;;;;;;;;;;;;;;;;;;4980822;28;19929;-81
2022/01/24 16:59:16;;;;;;;;;;;;;;;;;;4980235;28;19909;-81
2022/01/24 17:01:42;;;;;;;;;;;;;;;;;;4998324;28;20004;-81
2022/01/24 17:04:08;;;;;;;;;;;;;;;;;;5037513;28;19920;-82
2022/01/24 17:06:34;;;;;;;;;;;;;;;;;;5060928;28;19918;-81
2022/01/24 17:09:01;;;;;;;;;;;;;;;;;;5058676;28;20621;-81
2022/01/24 17:11:29;;;;;;;;;;;;;;;;;;5061523;28;19919;-81
2022/01/24 17:13:57;;;;;;;;;;;;;;;;;;5060227;28;19913;-81
2022/01/24 17:16:25;;;;;;;;;;;;;;;;;;5061602;28;19965;-81
2022/01/24 17:18:51;;;;;;;;;;;;;;;;;;5062756;28;19916;-82
2022/01/24 17:21:17;;;;;;;;;;;;;;;;;;5061491;28;19912;-81
2022/01/24 17:23:43;;;;;;;;;;;;;;;;;;5061440;28;19926;-82
2022/01/24 17:26:09;;;;;;;;;;;;;;;;;;5053467;28;20297;-81
2022/01/24 17:28:35;;;;;;;;;;;;;;;;;;5063443;28;20007;-82
2022/01/24 17:31:01;;;;;;;;;;;;;;;;;;5061361;28;19916;-81
2022/01/24 17:33:30;;;;;;;;;;;;;;;;;;5057828;28;20709;-78
2022/01/24 17:35:56;;;;;;;;;;;;;;;;;;5062182;28;19965;-81
2022/01/24 17:38:22;;;;;;;;;;;;;;;;;;5062729;28;19912;-80
2022/01/24 17:40:48;;;;;;;;;;;;;;;;;;5061882;28;19983;-83
2022/01/24 17:43:14;;;;;;;;;;;;;;;;;;5066783;28;20359;-82
2022/01/24 17:45:40;;;;;;;;;;;;;;;;;;5063618;28;19912;-82
2022/01/24 17:48:06;;;;;;;;;;;;;;;;;;5055503;28;19913;-83
2022/01/24 17:50:32;;;;;;;;;;;;;;;;;;5070888;28;19912;-82
2022/01/24 17:52:58;;;;;;;;;;;;;;;;;;5060030;28;19968;-82
2022/01/24 17:55:26;;;;;;;;;;;;;;;;;;5061787;28;19916;-83
2022/01/24 17:57:52;;;;;;;;;;;;;;;;;;5062210;28;19962;-82
2022/01/24 18:00:18;;;;;;;;;;;;;;;;;;5060449;28;20476;-83
2022/01/24 18:02:44;;;;;;;;;;;;;;;;;;5063752;28;19938;-83
2022/01/24 18:05:10;;;;;;;;;;;;;;;;;;5058673;28;19912;-82
2022/01/24 18:07:36;;;;;;;;;;;;;;;;;;5060636;28;19947;-82
2022/01/24 18:10:02;;;;;;;;;;;;;;;;;;5063217;28;20312;-82
2022/01/24 18:12:28;;;;;;;;;;;;;;;;;;5062952;28;19916;-82
2022/01/24 18:14:54;;;;;;;;;;;;;;;;;;5056338;28;20424;-82
2022/01/24 18:17:20;;;;;;;;;;;;;;;;;;5047157;28;19917;-82
2022/01/24 18:19:46;;;;;;;;;;;;;;;;;;5048317;28;19966;-82
2022/01/24 18:22:12;;;;;;;;;;;;;;;;;;5057673;28;19912;-82
2022/01/24 18:24:38;;;;;;;;;;;;;;;;;;5060835;28;19951;-82
2022/01/24 18:27:04;;;;;;;;;;;;;;;;;;5059831;28;20343;-82
2022/01/24 18:29:30;;;;;;;;;;;;;;;;;;5058701;28;19948;-82
2022/01/24 18:31:56;;;;;;;;;;;;;;;;;;5059376;28;20502;-82
2022/01/24 18:34:21;;;;;;;;;;;;;;;;;;5063602;28;19912;-82
2022/01/24 18:36:47;;;;;;;;;;;;;;;;;;5057040;28;19934;-82
2022/01/24 18:39:13;;;;;;;;;;;;;;;;;;5053995;28;19958;-83
2022/01/24 18:41:39;;;;;;;;;;;;;;;;;;5061146;28;19944;-82
2022/01/24 18:44:06;;;;;;;;;;;;;;;;;;5058972;28;20020;-81
2022/01/24 18:46:32;;;;;;;;;;;;;;;;;;5062917;28;19919;-81
2022/01/24 18:48:58;;;;;;;;;;;;;;;;;;5063453;28;19912;-83
2022/01/24 18:51:24;;;;;;;;;;;;;;;;;;5059032;28;20027;-83
2022/01/24 18:53:50;;;;;;;;;;;;;;;;;;5055784;28;20091;-83
2022/01/24 18:56:16;;;;;;;;;;;;;;;;;;5054776;28;19912;-83